sensor_id;sensor_type;location;lat;lon;timestamp;pressure;altitude;pressure_sealevel;temperature;humidity
11542;BME280;5827;49.482;7.716;2022-11-12T00:01:45;100416.47;;;5.12;100.00
11542;BME280;5827;49.482;7.716;2022-11-12T00:03:47;100418.13;;;5.29;100.00
11542;BME280;5827;49.482;7.716;2022-11-12T00:05:48;100416.78;;;5.41;100.00
11542;BME280;5827;49.482;7.716;2022-11-12T00:07:50;100412.63;;;5.47;100.00
11542;BME280;5827;49.482;7.716;2022-11-12T00:09:52;100414.91;;;5.58;100.00
11542;BME280;5827;49.482;7.716;2022-11-12T00:11:53;100417.88;;;5.63;100.00
11542;BME280;5827;49.482;7.716;2022-11-12T00:13:55;100414.47;;;5.30;100.00
11542;BME280;5827;49.482;7.716;2022-11-12T00:15:56;100420.47;;;5.07;100.00
11542;BME280;5827;49.482;7.716;2022-11-12T00:17:59;100410.66;;;5.08;100.00
11542;BME280;5827;49.482;7.716;2022-11-12T00:20:02;100416.47;;;5.36;100.00
11542;BME280;5827;49.482;7.716;2022-11-12T00:22:04;100414.66;;;4.96;100.00
11542;BME280;5827;49.482;7.716;2022-11-12T00:24:05;100418.31;;;5.19;100.00
11542;BME280;5827;49.482;7.716;2022-11-12T00:26:07;100422.97;;;5.09;100.00
11542;BME280;5827;49.482;7.716;2022-11-12T00:28:09;100422.78;;;5.10;100.00
11542;BME280;5827;49.482;7.716;2022-11-12T00:30:11;100419.47;;;4.76;100.00
11542;BME280;5827;49.482;7.716;2022-11-12T00:32:13;100419.97;;;5.12;100.00
11542;BME280;5827;49.482;7.716;2022-11-12T00:34:16;100422.63;;;5.20;100.00
11542;BME280;5827;49.482;7.716;2022-11-12T00:36:17;100416.66;;;5.18;100.00
11542;BME280;5827;49.482;7.716;2022-11-12T00:38:19;100423.28;;;5.06;100.00
11542;BME280;5827;49.482;7.716;2022-11-12T00:40:20;100425.91;;;4.57;100.00
11542;BME280;5827;49.482;7.716;2022-11-12T00:42:22;100436.38;;;4.75;100.00
11542;BME280;5827;49.482;7.716;2022-11-12T00:44:23;100430.28;;;4.91;100.00
11542;BME280;5827;49.482;7.716;2022-11-12T00:46:25;100438.91;;;5.01;100.00
11542;BME280;5827;49.482;7.716;2022-11-12T00:48:26;100445.69;;;4.79;100.00
11542;BME280;5827;49.482;7.716;2022-11-12T00:50:29;100445.69;;;5.12;100.00
11542;BME280;5827;49.482;7.716;2022-11-12T00:52:31;100445.53;;;5.21;100.00
11542;BME280;5827;49.482;7.716;2022-11-12T00:54:32;100445.72;;;5.28;100.00
11542;BME280;5827;49.482;7.716;2022-11-12T00:56:34;100446.72;;;5.27;100.00
11542;BME280;5827;49.482;7.716;2022-11-12T00:58:35;100436.22;;;5.17;100.00
11542;BME280;5827;49.482;7.716;2022-11-12T01:00:37;100438.72;;;4.78;100.00
11542;BME280;5827;49.482;7.716;2022-11-12T01:02:38;100441.03;;;4.81;100.00
11542;BME280;5827;49.482;7.716;2022-11-12T01:04:40;100448.53;;;5.02;100.00
11542;BME280;5827;49.482;7.716;2022-11-12T01:06:43;100438.88;;;4.68;100.00
11542;BME280;5827;49.482;7.716;2022-11-12T01:08:45;100444.19;;;4.68;100.00
11542;BME280;5827;49.482;7.716;2022-11-12T01:10:47;100439.72;;;4.69;100.00
11542;BME280;5827;49.482;7.716;2022-11-12T01:12:48;100441.03;;;4.65;100.00
11542;BME280;5827;49.482;7.716;2022-11-12T01:14:50;100437.56;;;5.05;100.00
11542;BME280;5827;49.482;7.716;2022-11-12T01:16:52;100435.91;;;5.12;100.00
11542;BME280;5827;49.482;7.716;2022-11-12T01:18:54;100438.88;;;5.25;100.00
11542;BME280;5827;49.482;7.716;2022-11-12T01:20:59;100441.22;;;5.20;100.00
11542;BME280;5827;49.482;7.716;2022-11-12T01:23:02;100437.91;;;4.77;100.00
11542;BME280;5827;49.482;7.716;2022-11-12T01:25:04;100430.25;;;4.74;100.00
11542;BME280;5827;49.482;7.716;2022-11-12T01:27:06;100432.09;;;5.06;100.00
11542;BME280;5827;49.482;7.716;2022-11-12T01:29:07;100429.22;;;4.67;100.00
11542;BME280;5827;49.482;7.716;2022-11-12T01:31:11;100432.09;;;4.74;100.00
11542;BME280;5827;49.482;7.716;2022-11-12T01:33:12;100423.09;;;4.58;100.00
11542;BME280;5827;49.482;7.716;2022-11-12T01:35:14;100417.97;;;4.73;100.00
11542;BME280;5827;49.482;7.716;2022-11-12T01:37:15;100415.47;;;4.64;100.00
11542;BME280;5827;49.482;7.716;2022-11-12T01:39:18;100414.31;;;4.66;100.00
11542;BME280;5827;49.482;7.716;2022-11-12T01:41:23;100418.66;;;4.83;100.00
11542;BME280;5827;49.482;7.716;2022-11-12T01:43:25;100416.50;;;4.87;100.00
11542;BME280;5827;49.482;7.716;2022-11-12T01:45:27;100411.00;;;4.97;100.00
11542;BME280;5827;49.482;7.716;2022-11-12T01:47:30;100411.50;;;5.00;100.00
11542;BME280;5827;49.482;7.716;2022-11-12T01:49:38;100410.19;;;4.88;100.00
11542;BME280;5827;49.482;7.716;2022-11-12T01:51:45;100415.16;;;4.99;100.00
11542;BME280;5827;49.482;7.716;2022-11-12T01:53:52;100405.69;;;5.05;100.00
11542;BME280;5827;49.482;7.716;2022-11-12T01:55:58;100412.81;;;5.13;100.00
11542;BME280;5827;49.482;7.716;2022-11-12T01:58:04;100416.66;;;5.02;100.00
11542;BME280;5827;49.482;7.716;2022-11-12T02:00:10;100417.97;;;5.06;100.00
11542;BME280;5827;49.482;7.716;2022-11-12T02:02:12;100406.03;;;5.10;100.00
11542;BME280;5827;49.482;7.716;2022-11-12T02:04:14;100410.16;;;5.13;100.00
11542;BME280;5827;49.482;7.716;2022-11-12T02:06:16;100393.75;;;5.09;100.00
11542;BME280;5827;49.482;7.716;2022-11-12T02:08:21;100401.69;;;5.17;100.00
11542;BME280;5827;49.482;7.716;2022-11-12T02:10:24;100408.19;;;5.23;100.00
11542;BME280;5827;49.482;7.716;2022-11-12T02:12:27;100408.00;;;5.16;100.00
11542;BME280;5827;49.482;7.716;2022-11-12T02:14:46;100409.50;;;5.19;100.00
11542;BME280;5827;49.482;7.716;2022-11-12T02:16:48;100405.16;;;5.18;100.00
11542;BME280;5827;49.482;7.716;2022-11-12T02:18:50;100401.03;;;5.23;100.00
11542;BME280;5827;49.482;7.716;2022-11-12T02:20:52;100401.53;;;5.27;100.00
11542;BME280;5827;49.482;7.716;2022-11-12T02:22:56;100401.84;;;5.24;100.00
11542;BME280;5827;49.482;7.716;2022-11-12T02:24:58;100403.84;;;5.22;100.00
11542;BME280;5827;49.482;7.716;2022-11-12T02:26:59;100403.84;;;5.30;100.00
11542;BME280;5827;49.482;7.716;2022-11-12T02:29:02;100407.50;;;5.29;100.00
11542;BME280;5827;49.482;7.716;2022-11-12T02:31:03;100403.00;;;5.21;100.00
11542;BME280;5827;49.482;7.716;2022-11-12T02:33:05;100403.88;;;5.14;100.00
11542;BME280;5827;49.482;7.716;2022-11-12T02:35:07;100401.88;;;5.16;100.00
11542;BME280;5827;49.482;7.716;2022-11-12T02:37:08;100390.09;;;5.10;100.00
11542;BME280;5827;49.482;7.716;2022-11-12T02:39:11;100396.06;;;5.12;100.00
11542;BME280;5827;49.482;7.716;2022-11-12T02:41:13;100395.41;;;5.10;100.00
11542;BME280;5827;49.482;7.716;2022-11-12T02:43:15;100388.75;;;5.14;100.00
11542;BME280;5827;49.482;7.716;2022-11-12T02:45:17;100392.88;;;5.08;100.00
11542;BME280;5827;49.482;7.716;2022-11-12T02:47:19;100397.72;;;4.80;100.00
11542;BME280;5827;49.482;7.716;2022-11-12T02:49:20;100394.72;;;4.75;100.00
11542;BME280;5827;49.482;7.716;2022-11-12T02:51:22;100388.44;;;4.93;100.00
11542;BME280;5827;49.482;7.716;2022-11-12T02:53:23;100390.25;;;4.51;100.00
11542;BME280;5827;49.482;7.716;2022-11-12T02:55:26;100402.69;;;4.51;100.00
11542;BME280;5827;49.482;7.716;2022-11-12T02:57:28;100388.44;;;4.68;100.00
11542;BME280;5827;49.482;7.716;2022-11-12T02:59:29;100393.56;;;4.62;100.00
11542;BME280;5827;49.482;7.716;2022-11-12T03:01:31;100394.09;;;4.81;100.00
11542;BME280;5827;49.482;7.716;2022-11-12T03:03:32;100386.09;;;4.90;100.00
11542;BME280;5827;49.482;7.716;2022-11-12T03:05:34;100381.13;;;4.95;100.00
11542;BME280;5827;49.482;7.716;2022-11-12T03:07:37;100387.78;;;4.91;100.00
11542;BME280;5827;49.482;7.716;2022-11-12T03:09:39;100379.47;;;4.45;100.00
11542;BME280;5827;49.482;7.716;2022-11-12T03:11:41;100377.63;;;4.37;100.00
11542;BME280;5827;49.482;7.716;2022-11-12T03:13:43;100377.94;;;4.42;100.00
11542;BME280;5827;49.482;7.716;2022-11-12T03:15:45;100371.78;;;4.17;100.00
11542;BME280;5827;49.482;7.716;2022-11-12T03:17:47;100373.63;;;4.33;100.00
11542;BME280;5827;49.482;7.716;2022-11-12T03:19:48;100372.59;;;4.26;100.00
11542;BME280;5827;49.482;7.716;2022-11-12T03:21:50;100371.81;;;4.58;100.00
11542;BME280;5827;49.482;7.716;2022-11-12T03:23:51;100369.03;;;4.59;100.00
11542;BME280;5827;49.482;7.716;2022-11-12T03:25:53;100369.00;;;4.76;100.00
11542;BME280;5827;49.482;7.716;2022-11-12T03:27:57;100366.88;;;4.88;100.00
11542;BME280;5827;49.482;7.716;2022-11-12T03:29:59;100368.69;;;4.79;100.00
11542;BME280;5827;49.482;7.716;2022-11-12T03:32:00;100367.19;;;4.60;100.00
11542;BME280;5827;49.482;7.716;2022-11-12T03:34:02;100367.53;;;4.73;100.00
11542;BME280;5827;49.482;7.716;2022-11-12T03:36:04;100363.53;;;4.85;100.00
11542;BME280;5827;49.482;7.716;2022-11-12T03:38:06;100362.38;;;4.96;100.00
11542;BME280;5827;49.482;7.716;2022-11-12T03:40:08;100370.16;;;5.06;100.00
11542;BME280;5827;49.482;7.716;2022-11-12T03:42:10;100366.69;;;5.05;100.00
11542;BME280;5827;49.482;7.716;2022-11-12T03:44:13;100359.06;;;4.62;100.00
11542;BME280;5827;49.482;7.716;2022-11-12T03:46:15;100355.91;;;4.50;100.00
11542;BME280;5827;49.482;7.716;2022-11-12T03:48:16;100353.06;;;4.27;100.00
11542;BME280;5827;49.482;7.716;2022-11-12T03:50:21;100357.19;;;4.29;100.00
11542;BME280;5827;49.482;7.716;2022-11-12T03:52:23;100355.59;;;4.45;100.00
11542;BME280;5827;49.482;7.716;2022-11-12T03:54:24;100361.91;;;4.68;100.00
11542;BME280;5827;49.482;7.716;2022-11-12T03:56:26;100360.38;;;4.66;100.00
11542;BME280;5827;49.482;7.716;2022-11-12T03:58:27;100367.88;;;4.54;100.00
11542;BME280;5827;49.482;7.716;2022-11-12T04:00:30;100365.53;;;4.67;100.00
11542;BME280;5827;49.482;7.716;2022-11-12T04:02:32;100366.34;;;4.51;100.00
11542;BME280;5827;49.482;7.716;2022-11-12T04:04:34;100363.47;;;4.20;100.00
11542;BME280;5827;49.482;7.716;2022-11-12T04:06:49;100362.72;;;4.61;100.00
11542;BME280;5827;49.482;7.716;2022-11-12T04:09:08;100370.19;;;4.73;100.00
11542;BME280;5827;49.482;7.716;2022-11-12T04:11:11;100365.38;;;4.77;100.00
11542;BME280;5827;49.482;7.716;2022-11-12T04:13:13;100368.50;;;4.80;100.00
11542;BME280;5827;49.482;7.716;2022-11-12T04:15:30;100368.19;;;4.92;100.00
11542;BME280;5827;49.482;7.716;2022-11-12T04:17:32;100363.03;;;4.98;100.00
11542;BME280;5827;49.482;7.716;2022-11-12T04:19:51;100364.03;;;5.05;100.00
11542;BME280;5827;49.482;7.716;2022-11-12T04:22:11;100362.53;;;5.03;100.00
11542;BME280;5827;49.482;7.716;2022-11-12T04:24:12;100358.91;;;4.96;100.00
11542;BME280;5827;49.482;7.716;2022-11-12T04:26:33;100358.06;;;4.87;100.00
11542;BME280;5827;49.482;7.716;2022-11-12T04:28:34;100360.22;;;4.83;100.00
11542;BME280;5827;49.482;7.716;2022-11-12T04:30:37;100353.25;;;4.82;100.00
11542;BME280;5827;49.482;7.716;2022-11-12T04:32:39;100354.91;;;4.75;100.00
11542;BME280;5827;49.482;7.716;2022-11-12T04:34:45;100359.72;;;4.72;100.00
11542;BME280;5827;49.482;7.716;2022-11-12T04:36:46;100348.25;;;4.30;100.00
11542;BME280;5827;49.482;7.716;2022-11-12T04:38:47;100357.75;;;4.49;100.00
11542;BME280;5827;49.482;7.716;2022-11-12T04:40:49;100357.91;;;4.56;100.00
11542;BME280;5827;49.482;7.716;2022-11-12T04:43:10;100359.22;;;4.60;100.00
11542;BME280;5827;49.482;7.716;2022-11-12T04:45:29;100363.72;;;4.59;100.00
11542;BME280;5827;49.482;7.716;2022-11-12T04:47:34;100369.69;;;4.70;100.00
11542;BME280;5827;49.482;7.716;2022-11-12T04:49:35;100367.19;;;4.68;100.00
11542;BME280;5827;49.482;7.716;2022-11-12T04:51:37;100364.88;;;4.73;100.00
11542;BME280;5827;49.482;7.716;2022-11-12T04:53:56;100360.38;;;4.66;100.00
11542;BME280;5827;49.482;7.716;2022-11-12T04:55:58;100349.28;;;4.70;100.00
11542;BME280;5827;49.482;7.716;2022-11-12T04:57:59;100361.22;;;4.74;100.00
11542;BME280;5827;49.482;7.716;2022-11-12T05:00:02;100364.69;;;4.75;100.00
11542;BME280;5827;49.482;7.716;2022-11-12T05:02:04;100358.72;;;4.81;100.00
11542;BME280;5827;49.482;7.716;2022-11-12T05:04:06;100360.22;;;4.92;100.00
11542;BME280;5827;49.482;7.716;2022-11-12T05:06:08;100358.56;;;4.74;100.00
11542;BME280;5827;49.482;7.716;2022-11-12T05:08:32;100360.06;;;4.69;100.00
11542;BME280;5827;49.482;7.716;2022-11-12T05:10:33;100348.44;;;4.78;100.00
11542;BME280;5827;49.482;7.716;2022-11-12T05:12:35;100352.56;;;4.80;100.00
11542;BME280;5827;49.482;7.716;2022-11-12T05:14:37;100357.25;;;4.87;100.00
11542;BME280;5827;49.482;7.716;2022-11-12T05:16:38;100354.09;;;4.50;100.00
11542;BME280;5827;49.482;7.716;2022-11-12T05:18:40;100359.41;;;4.50;100.00
11542;BME280;5827;49.482;7.716;2022-11-12T05:20:43;100349.44;;;4.77;100.00
11542;BME280;5827;49.482;7.716;2022-11-12T05:22:44;100345.47;;;4.73;100.00
11542;BME280;5827;49.482;7.716;2022-11-12T05:24:45;100342.00;;;4.72;100.00
11542;BME280;5827;49.482;7.716;2022-11-12T05:26:46;100344.63;;;4.89;100.00
11542;BME280;5827;49.482;7.716;2022-11-12T05:28:47;100339.13;;;4.90;100.00
11542;BME280;5827;49.482;7.716;2022-11-12T05:30:48;100335.31;;;4.93;100.00
11542;BME280;5827;49.482;7.716;2022-11-12T05:32:50;100347.41;;;5.03;100.00
11542;BME280;5827;49.482;7.716;2022-11-12T05:34:51;100342.78;;;4.97;100.00
11542;BME280;5827;49.482;7.716;2022-11-12T05:36:54;100344.25;;;5.08;100.00
11542;BME280;5827;49.482;7.716;2022-11-12T05:38:56;100333.00;;;4.65;100.00
11542;BME280;5827;49.482;7.716;2022-11-12T05:40:57;100335.50;;;4.83;100.00
11542;BME280;5827;49.482;7.716;2022-11-12T05:42:59;100345.13;;;4.92;100.00
11542;BME280;5827;49.482;7.716;2022-11-12T05:45:00;100356.56;;;4.60;100.00
11542;BME280;5827;49.482;7.716;2022-11-12T05:47:02;100356.41;;;4.70;100.00
11542;BME280;5827;49.482;7.716;2022-11-12T05:49:04;100359.06;;;4.62;100.00
11542;BME280;5827;49.482;7.716;2022-11-12T05:51:05;100356.06;;;4.89;100.00
11542;BME280;5827;49.482;7.716;2022-11-12T05:53:08;100359.38;;;4.99;100.00
11542;BME280;5827;49.482;7.716;2022-11-12T05:55:10;100355.75;;;4.92;100.00
11542;BME280;5827;49.482;7.716;2022-11-12T05:57:11;100362.69;;;5.01;100.00
11542;BME280;5827;49.482;7.716;2022-11-12T05:59:13;100361.38;;;4.97;100.00
11542;BME280;5827;49.482;7.716;2022-11-12T06:01:14;100361.19;;;4.99;100.00
11542;BME280;5827;49.482;7.716;2022-11-12T06:03:16;100364.16;;;5.04;100.00
11542;BME280;5827;49.482;7.716;2022-11-12T06:05:17;100363.66;;;5.17;100.00
11542;BME280;5827;49.482;7.716;2022-11-12T06:07:19;100367.81;;;5.19;100.00
11542;BME280;5827;49.482;7.716;2022-11-12T06:09:22;100371.00;;;5.15;100.00
11542;BME280;5827;49.482;7.716;2022-11-12T06:11:24;100375.66;;;4.80;100.00
11542;BME280;5827;49.482;7.716;2022-11-12T06:13:25;100371.00;;;4.98;100.00
11542;BME280;5827;49.482;7.716;2022-11-12T06:15:27;100376.31;;;5.06;100.00
11542;BME280;5827;49.482;7.716;2022-11-12T06:17:29;100380.81;;;4.73;100.00
11542;BME280;5827;49.482;7.716;2022-11-12T06:19:30;100392.09;;;5.00;100.00
11542;BME280;5827;49.482;7.716;2022-11-12T06:21:32;100391.25;;;5.07;100.00
11542;BME280;5827;49.482;7.716;2022-11-12T06:23:33;100393.25;;;5.05;100.00
11542;BME280;5827;49.482;7.716;2022-11-12T06:25:36;100386.78;;;4.75;100.00
11542;BME280;5827;49.482;7.716;2022-11-12T06:27:38;100382.44;;;4.99;100.00
11542;BME280;5827;49.482;7.716;2022-11-12T06:29:39;100383.59;;;5.13;100.00
11542;BME280;5827;49.482;7.716;2022-11-12T06:31:41;100376.44;;;5.21;100.00
11542;BME280;5827;49.482;7.716;2022-11-12T06:33:42;100382.44;;;5.31;100.00
11542;BME280;5827;49.482;7.716;2022-11-12T06:35:44;100382.06;;;5.26;100.00
11542;BME280;5827;49.482;7.716;2022-11-12T06:37:47;100383.56;;;5.37;100.00
11542;BME280;5827;49.482;7.716;2022-11-12T06:39:49;100379.22;;;5.44;100.00
11542;BME280;5827;49.482;7.716;2022-11-12T06:41:51;100380.56;;;5.40;100.00
11542;BME280;5827;49.482;7.716;2022-11-12T06:43:54;100384.88;;;5.41;100.00
11542;BME280;5827;49.482;7.716;2022-11-12T06:45:58;100390.34;;;5.48;100.00
11542;BME280;5827;49.482;7.716;2022-11-12T06:48:00;100395.22;;;5.28;100.00
11542;BME280;5827;49.482;7.716;2022-11-12T06:50:01;100390.84;;;5.43;100.00
11542;BME280;5827;49.482;7.716;2022-11-12T06:52:03;100389.84;;;5.44;100.00
11542;BME280;5827;49.482;7.716;2022-11-12T06:54:05;100386.38;;;5.44;100.00
11542;BME280;5827;49.482;7.716;2022-11-12T06:56:07;100389.03;;;5.44;100.00
11542;BME280;5827;49.482;7.716;2022-11-12T06:58:10;100383.56;;;5.45;100.00
11542;BME280;5827;49.482;7.716;2022-11-12T07:00:12;100391.19;;;5.40;100.00
11542;BME280;5827;49.482;7.716;2022-11-12T07:02:14;100396.88;;;5.13;100.00
11542;BME280;5827;49.482;7.716;2022-11-12T07:04:15;100401.34;;;5.20;100.00
11542;BME280;5827;49.482;7.716;2022-11-12T07:06:17;100400.84;;;5.41;100.00
11542;BME280;5827;49.482;7.716;2022-11-12T07:08:19;100406.28;;;5.56;100.00
11542;BME280;5827;49.482;7.716;2022-11-12T07:10:21;100409.78;;;5.48;100.00
11542;BME280;5827;49.482;7.716;2022-11-12T07:12:22;100409.31;;;5.37;100.00
11542;BME280;5827;49.482;7.716;2022-11-12T07:14:25;100400.97;;;5.56;100.00
11542;BME280;5827;49.482;7.716;2022-11-12T07:16:27;100399.75;;;5.67;100.00
11542;BME280;5827;49.482;7.716;2022-11-12T07:18:29;100409.53;;;5.74;100.00
11542;BME280;5827;49.482;7.716;2022-11-12T07:20:31;100408.84;;;5.80;100.00
11542;BME280;5827;49.482;7.716;2022-11-12T07:22:32;100398.56;;;5.77;100.00
11542;BME280;5827;49.482;7.716;2022-11-12T07:24:34;100414.06;;;5.57;100.00
11542;BME280;5827;49.482;7.716;2022-11-12T07:26:36;100408.31;;;5.46;100.00
11542;BME280;5827;49.482;7.716;2022-11-12T07:28:37;100409.06;;;5.71;100.00
11542;BME280;5827;49.482;7.716;2022-11-12T07:30:40;100401.38;;;5.84;100.00
11542;BME280;5827;49.482;7.716;2022-11-12T07:32:42;100410.19;;;5.93;100.00
11542;BME280;5827;49.482;7.716;2022-11-12T07:34:43;100403.50;;;5.97;100.00
11542;BME280;5827;49.482;7.716;2022-11-12T07:36:45;100402.09;;;5.70;100.00
11542;BME280;5827;49.482;7.716;2022-11-12T07:38:50;100410.88;;;5.78;100.00
11542;BME280;5827;49.482;7.716;2022-11-12T07:40:57;100411.31;;;5.90;100.00
11542;BME280;5827;49.482;7.716;2022-11-12T07:42:59;100422.44;;;6.02;100.00
11542;BME280;5827;49.482;7.716;2022-11-12T07:45:01;100413.75;;;6.08;100.00
11542;BME280;5827;49.482;7.716;2022-11-12T07:47:04;100423.25;;;6.10;100.00
11542;BME280;5827;49.482;7.716;2022-11-12T07:49:05;100424.34;;;6.24;100.00
11542;BME280;5827;49.482;7.716;2022-11-12T07:51:10;100434.81;;;6.18;100.00
11542;BME280;5827;49.482;7.716;2022-11-12T07:53:13;100430.16;;;6.28;100.00
11542;BME280;5827;49.482;7.716;2022-11-12T07:55:14;100432.59;;;6.38;100.00
11542;BME280;5827;49.482;7.716;2022-11-12T07:57:16;100426.56;;;6.44;100.00
11542;BME280;5827;49.482;7.716;2022-11-12T07:59:17;100430.25;;;6.34;100.00
11542;BME280;5827;49.482;7.716;2022-11-12T08:01:23;100425.91;;;6.42;100.00
11542;BME280;5827;49.482;7.716;2022-11-12T08:03:27;100426.75;;;6.42;100.00
11542;BME280;5827;49.482;7.716;2022-11-12T08:05:28;100418.34;;;6.53;100.00
11542;BME280;5827;49.482;7.716;2022-11-12T08:07:30;100429.00;;;6.53;100.00
11542;BME280;5827;49.482;7.716;2022-11-12T08:09:31;100425.69;;;6.51;100.00
11542;BME280;5827;49.482;7.716;2022-11-12T08:11:33;100415.81;;;6.60;100.00
11542;BME280;5827;49.482;7.716;2022-11-12T08:13:35;100421.78;;;6.62;100.00
11542;BME280;5827;49.482;7.716;2022-11-12T08:15:36;100429.88;;;6.69;100.00
11542;BME280;5827;49.482;7.716;2022-11-12T08:17:38;100433.06;;;6.64;100.00
11542;BME280;5827;49.482;7.716;2022-11-12T08:19:41;100432.31;;;6.55;100.00
11542;BME280;5827;49.482;7.716;2022-11-12T08:21:43;100429.59;;;6.63;100.00
11542;BME280;5827;49.482;7.716;2022-11-12T08:23:45;100432.00;;;6.50;100.00
11542;BME280;5827;49.482;7.716;2022-11-12T08:25:47;100428.34;;;6.51;100.00
11542;BME280;5827;49.482;7.716;2022-11-12T08:27:48;100431.59;;;6.61;100.00
11542;BME280;5827;49.482;7.716;2022-11-12T08:29:50;100429.88;;;6.15;100.00
11542;BME280;5827;49.482;7.716;2022-11-12T08:31:51;100436.41;;;6.35;100.00
11542;BME280;5827;49.482;7.716;2022-11-12T08:33:53;100429.63;;;6.32;100.00
11542;BME280;5827;49.482;7.716;2022-11-12T08:35:56;100438.22;;;6.43;100.00
11542;BME280;5827;49.482;7.716;2022-11-12T08:37:58;100438.59;;;6.31;100.00
11542;BME280;5827;49.482;7.716;2022-11-12T08:40:00;100433.00;;;6.49;100.00
11542;BME280;5827;49.482;7.716;2022-11-12T08:42:01;100426.38;;;6.45;100.00
11542;BME280;5827;49.482;7.716;2022-11-12T08:44:03;100425.56;;;6.68;100.00
11542;BME280;5827;49.482;7.716;2022-11-12T08:46:05;100423.03;;;6.74;100.00
11542;BME280;5827;49.482;7.716;2022-11-12T08:48:09;100425.91;;;6.42;100.00
11542;BME280;5827;49.482;7.716;2022-11-12T08:50:13;100428.63;;;6.33;100.00
11542;BME280;5827;49.482;7.716;2022-11-12T08:52:15;100425.94;;;6.33;100.00
11542;BME280;5827;49.482;7.716;2022-11-12T08:54:17;100420.66;;;6.56;100.00
11542;BME280;5827;49.482;7.716;2022-11-12T08:56:18;100417.94;;;6.65;100.00
11542;BME280;5827;49.482;7.716;2022-11-12T08:58:20;100422.84;;;6.76;100.00
11542;BME280;5827;49.482;7.716;2022-11-12T09:00:22;100419.53;;;6.74;100.00
11542;BME280;5827;49.482;7.716;2022-11-12T09:02:23;100420.91;;;6.70;100.00
11542;BME280;5827;49.482;7.716;2022-11-12T09:04:25;100420.75;;;6.86;100.00
11542;BME280;5827;49.482;7.716;2022-11-12T09:06:26;100418.38;;;6.91;100.00
11542;BME280;5827;49.482;7.716;2022-11-12T09:08:33;100419.69;;;6.72;100.00
11542;BME280;5827;49.482;7.716;2022-11-12T09:10:35;100406.91;;;6.91;100.00
11542;BME280;5827;49.482;7.716;2022-11-12T09:12:37;100408.22;;;6.95;100.00
11542;BME280;5827;49.482;7.716;2022-11-12T09:14:38;100408.84;;;7.20;100.00
11542;BME280;5827;49.482;7.716;2022-11-12T09:16:40;100416.47;;;7.23;100.00
11542;BME280;5827;49.482;7.716;2022-11-12T09:18:41;100413.91;;;7.29;100.00
11542;BME280;5827;49.482;7.716;2022-11-12T09:20:44;100417.88;;;7.33;100.00
11542;BME280;5827;49.482;7.716;2022-11-12T09:22:46;100411.53;;;7.49;100.00
11542;BME280;5827;49.482;7.716;2022-11-12T09:24:48;100410.78;;;7.55;100.00
11542;BME280;5827;49.482;7.716;2022-11-12T09:26:51;100405.38;;;7.34;100.00
11542;BME280;5827;49.482;7.716;2022-11-12T09:28:53;100406.84;;;6.99;100.00
11542;BME280;5827;49.482;7.716;2022-11-12T09:30:54;100405.06;;;6.91;100.00
11542;BME280;5827;49.482;7.716;2022-11-12T09:32:56;100409.94;;;7.25;100.00
11542;BME280;5827;49.482;7.716;2022-11-12T09:34:58;100420.72;;;7.47;100.00
11542;BME280;5827;49.482;7.716;2022-11-12T09:36:59;100415.78;;;7.58;100.00
11542;BME280;5827;49.482;7.716;2022-11-12T09:39:01;100413.09;;;7.29;100.00
11542;BME280;5827;49.482;7.716;2022-11-12T09:41:26;100402.16;;;7.38;100.00
11542;BME280;5827;49.482;7.716;2022-11-12T09:43:31;100411.88;;;7.46;100.00
11542;BME280;5827;49.482;7.716;2022-11-12T09:45:35;100419.66;;;7.71;100.00
11542;BME280;5827;49.482;7.716;2022-11-12T09:47:41;100421.50;;;7.85;100.00
11542;BME280;5827;49.482;7.716;2022-11-12T09:49:47;100425.91;;;7.93;100.00
11542;BME280;5827;49.482;7.716;2022-11-12T09:51:52;100418.53;;;7.95;100.00
11542;BME280;5827;49.482;7.716;2022-11-12T09:53:56;100416.97;;;7.85;100.00
11542;BME280;5827;49.482;7.716;2022-11-12T09:56:00;100423.41;;;7.91;100.00
11542;BME280;5827;49.482;7.716;2022-11-12T09:58:10;100418.25;;;8.04;100.00
11542;BME280;5827;49.482;7.716;2022-11-12T10:00:15;100428.06;;;8.19;100.00
11542;BME280;5827;49.482;7.716;2022-11-12T10:02:25;100421.00;;;7.96;100.00
11542;BME280;5827;49.482;7.716;2022-11-12T10:04:42;100418.00;;;7.84;100.00
11542;BME280;5827;49.482;7.716;2022-11-12T10:06:48;100407.41;;;7.91;100.00
11542;BME280;5827;49.482;7.716;2022-11-12T10:08:58;100415.88;;;7.80;100.00
11542;BME280;5827;49.482;7.716;2022-11-12T10:11:09;100417.22;;;8.05;100.00
11542;BME280;5827;49.482;7.716;2022-11-12T10:13:34;100413.22;;;8.31;100.00
11542;BME280;5827;49.482;7.716;2022-11-12T10:15:51;100416.72;;;8.46;100.00
11542;BME280;5827;49.482;7.716;2022-11-12T10:18:15;100404.75;;;8.42;100.00
11542;BME280;5827;49.482;7.716;2022-11-12T10:20:22;100405.47;;;8.36;100.00
11542;BME280;5827;49.482;7.716;2022-11-12T10:22:36;100412.16;;;8.25;100.00
11542;BME280;5827;49.482;7.716;2022-11-12T10:24:40;100405.78;;;8.26;100.00
11542;BME280;5827;49.482;7.716;2022-11-12T10:26:43;100402.34;;;8.47;100.00
11542;BME280;5827;49.482;7.716;2022-11-12T10:28:47;100402.75;;;8.14;100.00
11542;BME280;5827;49.482;7.716;2022-11-12T10:30:51;100398.13;;;8.38;100.00
11542;BME280;5827;49.482;7.716;2022-11-12T10:32:54;100404.63;;;8.50;100.00
11542;BME280;5827;49.482;7.716;2022-11-12T10:34:55;100390.44;;;8.50;100.00
11542;BME280;5827;49.482;7.716;2022-11-12T10:37:01;100392.97;;;8.36;100.00
11542;BME280;5827;49.482;7.716;2022-11-12T10:39:04;100391.47;;;8.49;100.00
11542;BME280;5827;49.482;7.716;2022-11-12T10:41:18;100382.78;;;8.61;100.00
11542;BME280;5827;49.482;7.716;2022-11-12T10:43:22;100387.78;;;8.50;100.00
11542;BME280;5827;49.482;7.716;2022-11-12T10:45:26;100384.19;;;8.43;100.00
11542;BME280;5827;49.482;7.716;2022-11-12T10:47:30;100385.00;;;8.58;100.00
11542;BME280;5827;49.482;7.716;2022-11-12T10:49:32;100386.56;;;8.16;100.00
11542;BME280;5827;49.482;7.716;2022-11-12T10:51:35;100375.69;;;8.54;100.00
11542;BME280;5827;49.482;7.716;2022-11-12T10:53:38;100378.59;;;7.86;100.00